createdAt,value
2022-11-24T00:03:20.393Z,34.80
2022-11-24T00:05:52.111Z,33.60
2022-11-24T00:08:24.892Z,39.70
2022-11-24T00:10:56.402Z,38.10
2022-11-24T00:13:28.800Z,42.40
2022-11-24T00:16:13.495Z,35.40
2022-11-24T00:18:49.251Z,40.80
2022-11-24T00:21:23.701Z,39.70
2022-11-24T00:23:55.935Z,40.50
2022-11-24T00:26:29.366Z,42.50
2022-11-24T00:29:03.515Z,44.90
2022-11-24T00:31:36.708Z,46.80
2022-11-24T00:34:11.925Z,47.00
2022-11-24T00:39:17.686Z,40.90
2022-11-24T00:41:49.687Z,40.80
2022-11-24T00:44:21.272Z,48.30
2022-11-24T00:46:52.790Z,45.10
2022-11-24T00:49:24.604Z,46.30
2022-11-24T00:51:56.758Z,43.30
2022-11-24T00:54:28.911Z,50.30
2022-11-24T00:57:01.343Z,48.20
2022-11-24T00:59:33.196Z,47.60
2022-11-24T01:02:05.073Z,50.80
2022-11-24T01:04:36.661Z,43.20
2022-11-24T01:07:11.591Z,47.10
2022-11-24T01:09:45.810Z,41.80
2022-11-24T01:12:17.182Z,41.30
2022-11-24T01:14:49.403Z,41.80
2022-11-24T01:17:21.167Z,39.80
2022-11-24T01:19:53.093Z,40.10
2022-11-24T01:22:26.770Z,41.70
2022-11-24T01:24:58.098Z,39.00
2022-11-24T01:27:29.554Z,37.30
2022-11-24T01:30:01.965Z,33.90
2022-11-24T01:32:36.489Z,37.80
2022-11-24T01:35:10.205Z,39.10
2022-11-24T01:37:41.474Z,33.20
2022-11-24T01:40:15.306Z,32.10
2022-11-24T01:42:53.834Z,36.30
2022-11-24T01:45:45.533Z,35.40
2022-11-24T01:51:15.238Z,41.90
2022-11-24T01:53:54.711Z,36.50
2022-11-24T01:56:27.127Z,34.30
2022-11-24T01:59:02.640Z,39.20
2022-11-24T02:01:35.286Z,33.00
2022-11-24T02:04:10.412Z,36.00
2022-11-24T02:06:45.200Z,40.70
2022-11-24T02:09:23.267Z,37.20
2022-11-24T02:11:55.311Z,36.30
2022-11-24T02:14:27.955Z,32.90
2022-11-24T02:17:00.450Z,34.10
2022-11-24T02:19:44.623Z,32.80
2022-11-24T02:22:21.535Z,35.60
2022-11-24T02:24:57.567Z,34.00
2022-11-24T02:27:29.520Z,33.20
2022-11-24T02:30:01.584Z,33.10
2022-11-24T02:32:35.201Z,35.70
2022-11-24T02:35:11.065Z,32.70
2022-11-24T02:37:42.394Z,31.00
2022-11-24T02:40:20.352Z,27.60
2022-11-24T02:42:53.880Z,27.10
2022-11-24T02:45:26.331Z,31.30
2022-11-24T02:47:57.577Z,24.20
2022-11-24T02:50:29.414Z,29.40
2022-11-24T02:53:02.376Z,28.10
2022-11-24T02:55:34.411Z,23.90
2022-11-24T02:58:05.687Z,24.30
2022-11-24T03:00:37.081Z,22.60
2022-11-24T03:03:08.721Z,23.70
2022-11-24T03:05:43.536Z,23.40
2022-11-24T03:08:14.841Z,28.20
2022-11-24T03:10:46.435Z,24.10
2022-11-24T03:13:17.939Z,31.20
2022-11-24T03:15:49.605Z,25.80
2022-11-24T03:18:21.195Z,23.90
2022-11-24T03:20:53.081Z,26.70
2022-11-24T03:23:25.182Z,25.20
2022-11-24T03:25:56.693Z,22.20
2022-11-24T03:28:28.675Z,20.40
2022-11-24T03:31:00.233Z,21.90
2022-11-24T03:33:31.628Z,25.10
2022-11-24T03:36:03.524Z,25.50
2022-11-24T03:38:40.620Z,23.40
2022-11-24T03:41:13.804Z,26.40
2022-11-24T03:43:45.134Z,22.70
2022-11-24T03:46:16.731Z,22.20
2022-11-24T03:51:22.033Z,18.50
2022-11-24T03:53:53.461Z,21.60
2022-11-24T03:56:25.070Z,21.40
2022-11-24T03:58:57.341Z,19.30
2022-11-24T04:01:28.776Z,23.40
2022-11-24T04:04:00.449Z,20.50
2022-11-24T04:06:32.188Z,24.20
2022-11-24T04:09:04.507Z,21.20
2022-11-24T04:11:53.873Z,19.00
2022-11-24T04:14:25.239Z,22.10
2022-11-24T04:16:56.887Z,18.50
2022-11-24T04:19:28.896Z,24.50
2022-11-24T04:22:01.949Z,21.70
2022-11-24T04:24:33.818Z,20.80
2022-11-24T04:27:05.624Z,21.50
2022-11-24T04:29:36.870Z,18.70
2022-11-24T04:32:09.194Z,20.40
2022-11-24T04:34:40.419Z,21.60
2022-11-24T04:37:11.755Z,21.40
2022-11-24T04:39:45.400Z,21.90
2022-11-24T04:42:17.216Z,40.10
2022-11-24T04:44:52.275Z,29.00
2022-11-24T04:47:25.351Z,19.50
2022-11-24T04:49:57.153Z,20.70
2022-11-24T04:52:31.407Z,18.90
2022-11-24T04:55:03.532Z,25.10
2022-11-24T04:57:37.089Z,27.10
2022-11-24T05:00:15.084Z,24.50
2022-11-24T05:02:46.665Z,23.60
2022-11-24T05:05:18.579Z,24.50
2022-11-24T05:07:50.171Z,23.60
2022-11-24T05:10:37.894Z,27.80
2022-11-24T05:13:12.486Z,21.20
2022-11-24T05:15:44.114Z,22.20
2022-11-24T05:18:16.846Z,25.70
2022-11-24T05:20:52.099Z,21.30
2022-11-24T05:25:54.573Z,25.50
2022-11-24T05:28:26.045Z,22.50
2022-11-24T05:30:59.880Z,21.50
2022-11-24T05:33:33.745Z,21.20
2022-11-24T05:36:31.353Z,32.10
2022-11-24T05:39:02.748Z,23.30
2022-11-24T05:41:33.944Z,24.70
2022-11-24T05:44:06.034Z,19.90
2022-11-24T05:46:37.547Z,26.20
2022-11-24T05:49:08.677Z,21.60
2022-11-24T05:51:40.237Z,33.10
2022-11-24T05:54:11.337Z,24.60
2022-11-24T05:56:42.283Z,28.30
2022-11-24T05:59:13.072Z,23.50
2022-11-24T06:01:43.936Z,24.70
2022-11-24T06:04:15.130Z,28.40
2022-11-24T06:06:47.267Z,30.70
2022-11-24T06:09:18.435Z,28.40
2022-11-24T06:11:49.995Z,28.80
2022-11-24T06:14:20.864Z,24.50
2022-11-24T06:16:51.699Z,22.70
2022-11-24T06:19:22.609Z,26.00
2022-11-24T06:21:53.965Z,30.80
2022-11-24T06:24:25.033Z,27.70
2022-11-24T06:26:55.886Z,34.10
2022-11-24T06:29:26.809Z,29.10
2022-11-24T06:31:57.682Z,24.00
2022-11-24T06:34:28.520Z,27.00
2022-11-24T06:36:59.419Z,33.70
2022-11-24T06:39:30.253Z,30.20
2022-11-24T06:42:01.129Z,27.60
2022-11-24T06:44:32.297Z,28.40
2022-11-24T06:47:03.345Z,35.10
2022-11-24T06:49:34.131Z,28.50
2022-11-24T06:52:14.258Z,28.20
2022-11-24T06:54:45.225Z,25.10
2022-11-24T06:57:20.472Z,28.80
2022-11-24T06:59:52.184Z,29.80
2022-11-24T07:02:23.037Z,28.40
2022-11-24T07:04:53.841Z,31.70
2022-11-24T07:07:24.897Z,29.10
2022-11-24T07:09:55.779Z,31.40
2022-11-24T07:12:29.367Z,29.80
2022-11-24T07:15:00.268Z,33.90
2022-11-24T07:17:31.084Z,25.20
2022-11-24T07:20:02.053Z,23.90
2022-11-24T07:22:32.978Z,22.60
2022-11-24T07:25:07.387Z,24.60
2022-11-24T07:27:38.353Z,27.70
2022-11-24T07:30:11.302Z,27.60
2022-11-24T07:32:42.206Z,24.60
2022-11-24T07:35:13.130Z,27.60
2022-11-24T07:37:43.940Z,28.80
2022-11-24T07:40:15.581Z,23.30
2022-11-24T07:42:46.386Z,23.60
2022-11-24T07:45:17.506Z,20.40
2022-11-24T07:47:48.407Z,25.70
2022-11-24T07:50:20.743Z,23.60
2022-11-24T07:52:51.632Z,23.10
2022-11-24T07:55:22.554Z,23.80
2022-11-24T07:57:53.351Z,25.60
2022-11-24T08:00:24.602Z,25.40
2022-11-24T08:02:55.925Z,19.30
2022-11-24T08:05:26.816Z,15.80
2022-11-24T08:08:00.577Z,22.20
2022-11-24T08:10:31.435Z,26.50
2022-11-24T08:13:04.234Z,24.60
2022-11-24T08:15:35.097Z,20.20
2022-11-24T08:18:06.250Z,19.60
2022-11-24T08:20:37.555Z,22.10
2022-11-24T08:23:09.038Z,18.40
2022-11-24T08:25:39.988Z,23.10
2022-11-24T08:28:10.892Z,22.80
2022-11-24T08:30:41.825Z,19.40
2022-11-24T08:33:12.898Z,18.70
2022-11-24T08:35:43.768Z,21.10
2022-11-24T08:38:17.273Z,21.00
2022-11-24T08:40:48.192Z,22.80
2022-11-24T08:43:19.012Z,19.40
2022-11-24T08:45:49.865Z,28.60
2022-11-24T08:48:20.813Z,22.60
2022-11-24T08:50:51.691Z,21.80
2022-11-24T08:53:22.576Z,18.60
2022-11-24T08:55:53.457Z,22.10
2022-11-24T08:58:24.229Z,22.30
2022-11-24T09:00:55.369Z,27.20
2022-11-24T09:03:26.398Z,21.00
2022-11-24T09:05:57.288Z,22.60
2022-11-24T09:08:28.073Z,24.20
2022-11-24T09:11:02.655Z,23.90
2022-11-24T09:13:33.500Z,24.50
2022-11-24T09:16:08.026Z,24.30
2022-11-24T09:18:39.284Z,19.60
2022-11-24T09:21:11.304Z,22.10
2022-11-24T09:23:42.618Z,23.70
2022-11-24T09:26:15.219Z,26.00
2022-11-24T09:28:47.037Z,20.70
2022-11-24T09:31:19.126Z,22.70
2022-11-24T09:33:49.976Z,24.00
2022-11-24T09:36:21.943Z,20.60
2022-11-24T09:38:52.987Z,20.00
2022-11-24T09:41:36.559Z,24.60
2022-11-24T09:44:34.183Z,23.00
2022-11-24T09:47:15.083Z,21.90
2022-11-24T09:49:57.360Z,26.70
2022-11-24T09:52:42.333Z,25.70
2022-11-24T09:55:28.738Z,21.10
2022-11-24T09:58:07.469Z,36.60
2022-11-24T10:00:40.314Z,24.90
2022-11-24T10:03:23.789Z,27.20
2022-11-24T10:05:55.314Z,24.00
2022-11-24T10:08:49.948Z,27.60
2022-11-24T10:11:36.466Z,18.90
2022-11-24T10:14:33.061Z,23.80
2022-11-24T10:17:13.368Z,30.10
2022-11-24T10:19:52.126Z,25.20
2022-11-24T10:22:37.047Z,28.80
2022-11-24T10:25:13.930Z,23.80
2022-11-24T10:27:47.881Z,25.30
2022-11-24T10:30:22.677Z,22.30
2022-11-24T10:32:59.633Z,27.50
2022-11-24T10:35:39.059Z,27.20
2022-11-24T10:38:25.359Z,32.70
2022-11-24T10:41:00.904Z,30.10
2022-11-24T10:43:31.944Z,27.30
2022-11-24T10:46:12.649Z,26.60
2022-11-24T10:48:49.305Z,25.10
2022-11-24T10:51:45.184Z,28.50
2022-11-24T10:54:19.829Z,24.00
2022-11-24T10:56:54.174Z,23.90
2022-11-24T10:59:47.195Z,33.80
2022-11-24T11:02:47.672Z,24.00
2022-11-24T11:05:43.011Z,26.80
2022-11-24T11:08:20.442Z,26.60
2022-11-24T11:11:11.367Z,27.90
2022-11-24T11:13:52.188Z,26.10
2022-11-24T11:16:33.896Z,23.30
2022-11-24T11:19:26.010Z,26.90
2022-11-24T11:22:05.356Z,27.50
2022-11-24T11:24:37.269Z,25.90
2022-11-24T11:27:20.793Z,29.50
2022-11-24T11:35:46.988Z,32.60
2022-11-24T11:38:18.347Z,28.70
2022-11-24T11:40:52.582Z,28.30
2022-11-24T11:43:28.784Z,28.10
2022-11-24T11:46:05.180Z,30.80
2022-11-24T11:48:43.635Z,29.20
2022-11-24T11:54:32.411Z,35.80
2022-11-24T11:57:12.221Z,31.00
2022-11-24T11:59:59.186Z,33.30
2022-11-24T12:03:06.324Z,32.20
2022-11-24T12:05:48.710Z,27.20
2022-11-24T12:08:49.501Z,27.70
2022-11-24T12:11:33.343Z,25.70
2022-11-24T12:14:18.611Z,29.90
2022-11-24T12:16:58.767Z,26.30
2022-11-24T12:19:51.399Z,26.20
2022-11-24T12:22:34.639Z,27.00
2022-11-24T12:25:24.110Z,26.90
2022-11-24T12:28:09.070Z,26.00
2022-11-24T12:30:51.900Z,36.60
2022-11-24T12:33:40.298Z,26.80
2022-11-24T12:36:25.972Z,28.30
2022-11-24T12:39:06.629Z,28.10
2022-11-24T12:41:56.774Z,31.60
2022-11-24T12:44:52.481Z,30.90
2022-11-24T12:47:35.132Z,28.10
2022-11-24T12:50:13.011Z,29.60
2022-11-24T12:52:52.891Z,31.40
2022-11-24T12:55:28.277Z,30.40
2022-11-24T12:58:10.998Z,27.10
2022-11-24T13:01:00.608Z,31.10
2022-11-24T13:03:45.953Z,29.10
2022-11-24T13:06:23.468Z,32.00
2022-11-24T13:08:55.034Z,29.00
2022-11-24T13:11:43.789Z,26.60
2022-11-24T13:14:24.674Z,27.60
2022-11-24T13:17:27.829Z,35.10
2022-11-24T13:19:50.608Z,31.90
2022-11-24T13:22:27.264Z,31.80
2022-11-24T13:25:17.492Z,32.90
2022-11-24T13:27:52.990Z,33.40
2022-11-24T13:30:59.741Z,32.10
2022-11-24T13:33:33.844Z,40.20
2022-11-24T13:36:54.218Z,38.50
2022-11-24T13:39:50.907Z,32.00
2022-11-24T13:42:41.587Z,46.40
2022-11-24T13:45:49.295Z,34.10
2022-11-24T13:48:51.213Z,34.50
2022-11-24T13:51:26.176Z,32.70
2022-11-24T13:54:01.092Z,31.20
2022-11-24T13:56:33.501Z,32.60
2022-11-24T13:59:19.460Z,34.90
2022-11-24T14:01:59.551Z,28.60
2022-11-24T14:04:43.200Z,29.10
2022-11-24T14:07:16.909Z,34.10
2022-11-24T14:09:50.972Z,30.20
2022-11-24T14:12:24.526Z,29.30
2022-11-24T14:15:14.231Z,32.80
2022-11-24T14:17:45.737Z,33.70
2022-11-24T14:20:25.893Z,30.30
2022-11-24T14:22:56.937Z,29.60
2022-11-24T14:25:32.058Z,30.40
2022-11-24T14:28:03.700Z,30.60
2022-11-24T14:30:34.636Z,30.00
2022-11-24T14:33:12.265Z,30.00
2022-11-24T14:35:48.477Z,34.60
2022-11-24T14:38:19.516Z,27.00
2022-11-24T14:40:52.453Z,36.40
2022-11-24T14:43:29.072Z,36.60
2022-11-24T14:46:03.615Z,30.00
2022-11-24T14:48:37.936Z,29.50
2022-11-24T14:51:15.454Z,33.00
2022-11-24T14:53:49.301Z,36.10
2022-11-24T14:56:28.221Z,31.50
2022-11-24T14:59:00.788Z,36.90
2022-11-24T15:01:36.302Z,40.80
2022-11-24T15:04:54.445Z,39.60
2022-11-24T15:07:22.653Z,42.10
2022-11-24T15:09:58.042Z,33.00
2022-11-24T15:12:34.501Z,29.90
2022-11-24T15:15:17.652Z,34.20
2022-11-24T15:17:51.732Z,33.90
2022-11-24T15:20:28.617Z,35.10
2022-11-24T15:23:24.844Z,37.80
2022-11-24T15:25:56.612Z,33.50
2022-11-24T15:28:27.883Z,40.70
2022-11-24T15:31:01.215Z,34.40
2022-11-24T15:33:32.888Z,36.70
2022-11-24T15:36:04.207Z,40.00
2022-11-24T15:38:35.221Z,44.90
2022-11-24T15:41:18.904Z,44.20
2022-11-24T15:43:49.889Z,40.30
2022-11-24T15:46:24.221Z,43.00
2022-11-24T15:48:55.728Z,46.30
2022-11-24T15:51:28.354Z,44.00
2022-11-24T15:54:01.408Z,47.00
2022-11-24T15:56:36.872Z,43.50
2022-11-24T15:59:18.561Z,39.80
2022-11-24T16:01:51.556Z,44.80
2022-11-24T16:04:22.500Z,42.20
2022-11-24T16:06:53.318Z,46.80
2022-11-24T16:09:24.402Z,39.80
2022-11-24T16:11:55.911Z,43.80
2022-11-24T16:14:26.849Z,40.40
2022-11-24T16:16:58.407Z,48.00
2022-11-24T16:19:29.302Z,37.30
2022-11-24T16:22:00.245Z,42.20
2022-11-24T16:24:31.305Z,45.90
2022-11-24T16:27:02.363Z,50.40
2022-11-24T16:29:38.199Z,46.20
2022-11-24T16:32:09.964Z,46.10
2022-11-24T16:34:40.802Z,49.30
2022-11-24T16:37:11.969Z,85.80
2022-11-24T16:39:49.686Z,54.20
2022-11-24T16:42:21.285Z,47.20
2022-11-24T16:44:52.886Z,49.90
2022-11-24T16:47:24.601Z,48.70
2022-11-24T16:49:56.385Z,45.00
2022-11-24T16:52:27.465Z,44.80
2022-11-24T16:54:58.804Z,49.10
2022-11-24T16:57:29.949Z,56.70
2022-11-24T17:00:00.930Z,51.60
2022-11-24T17:02:32.732Z,47.10
2022-11-24T17:05:03.738Z,56.20
2022-11-24T17:07:35.600Z,59.30
2022-11-24T17:10:08.028Z,58.10
2022-11-24T17:12:40.876Z,61.60
2022-11-24T17:20:58.010Z,59.30
2022-11-24T17:23:29.264Z,62.20
2022-11-24T17:26:06.022Z,57.30
2022-11-24T17:28:36.882Z,56.90
2022-11-24T17:31:15.610Z,57.80
2022-11-24T17:33:46.700Z,58.00
2022-11-24T17:36:17.792Z,54.90
2022-11-24T17:38:50.379Z,63.60
2022-11-24T17:41:22.098Z,64.30
2022-11-24T17:43:53.829Z,56.00
2022-11-24T17:46:25.222Z,56.60
2022-11-24T17:48:57.795Z,71.90
2022-11-24T17:51:29.298Z,61.90
2022-11-24T17:54:05.974Z,97.20
2022-11-24T17:56:49.993Z,79.70
2022-11-24T17:59:20.819Z,64.50
2022-11-24T18:01:52.275Z,62.20
2022-11-24T18:04:23.631Z,63.00
2022-11-24T18:06:54.687Z,72.80
2022-11-24T18:09:26.232Z,71.00
2022-11-24T18:11:57.169Z,71.00
2022-11-24T18:14:28.517Z,70.10
2022-11-24T18:16:59.546Z,68.40
2022-11-24T18:19:30.688Z,72.70
2022-11-24T18:22:01.869Z,79.90
2022-11-24T18:24:32.744Z,83.50
2022-11-24T18:27:03.800Z,70.20
2022-11-24T18:29:34.899Z,79.30
2022-11-24T18:32:06.166Z,83.30
2022-11-24T18:34:37.632Z,67.40
2022-11-24T18:37:09.101Z,73.60
2022-11-24T18:39:42.799Z,73.60
2022-11-24T18:42:19.805Z,69.50
2022-11-24T18:44:53.878Z,74.40
2022-11-24T18:47:25.571Z,71.80
2022-11-24T18:50:00.441Z,66.30
2022-11-24T18:52:31.749Z,67.70
2022-11-24T18:55:04.832Z,61.50
2022-11-24T18:57:36.488Z,61.40
2022-11-24T19:00:11.628Z,56.00
2022-11-24T19:02:42.796Z,63.80
2022-11-24T19:05:13.904Z,60.00
2022-11-24T19:07:47.156Z,59.80
2022-11-24T19:10:18.559Z,73.90
2022-11-24T19:12:49.388Z,76.10
2022-11-24T19:15:20.611Z,64.80
2022-11-24T19:17:55.145Z,65.40
2022-11-24T19:20:26.215Z,58.70
2022-11-24T19:22:58.347Z,61.50
2022-11-24T19:25:29.523Z,61.90
2022-11-24T19:28:00.615Z,66.10
2022-11-24T19:30:32.500Z,71.10
2022-11-24T19:33:03.612Z,66.20
2022-11-24T19:35:36.109Z,66.70
2022-11-24T19:38:08.241Z,70.50
2022-11-24T19:40:41.299Z,64.30
2022-11-24T19:43:12.377Z,66.80
2022-11-24T19:45:44.517Z,67.20
2022-11-24T19:48:18.850Z,66.60
2022-11-24T19:51:03.591Z,64.20
2022-11-24T19:53:34.821Z,52.00
2022-11-24T19:56:10.586Z,64.60
2022-11-24T19:58:43.567Z,73.00
2022-11-24T20:01:16.807Z,76.00
2022-11-24T20:03:50.755Z,62.10
2022-11-24T20:06:21.802Z,72.00
2022-11-24T20:08:52.877Z,80.90
2022-11-24T20:11:28.054Z,71.90
2022-11-24T20:14:00.291Z,79.60
2022-11-24T20:16:33.173Z,82.80
2022-11-24T20:19:17.663Z,77.30
2022-11-24T20:21:50.327Z,74.70
2022-11-24T20:24:24.648Z,81.10
2022-11-24T20:26:59.083Z,87.00
2022-11-24T20:29:32.234Z,78.10
2022-11-24T20:32:03.264Z,79.40
2022-11-24T20:34:34.728Z,98.70
2022-11-24T20:37:13.269Z,76.90
2022-11-24T20:39:44.390Z,83.20
2022-11-24T20:42:15.537Z,72.10
2022-11-24T20:44:46.701Z,83.90
2022-11-24T20:47:17.847Z,77.00
2022-11-24T20:49:49.796Z,71.00
2022-11-24T20:52:20.668Z,73.90
2022-11-24T20:54:51.589Z,67.30
2022-11-24T20:57:22.771Z,74.00
2022-11-24T20:59:53.562Z,65.80
2022-11-24T21:02:25.986Z,62.60
2022-11-24T21:04:57.161Z,59.50
2022-11-24T21:07:28.489Z,57.80
2022-11-24T21:09:59.539Z,63.70
2022-11-24T21:12:30.650Z,57.20
2022-11-24T21:15:01.775Z,55.10
2022-11-24T21:17:34.220Z,46.90
2022-11-24T21:20:05.657Z,51.90
2022-11-24T21:22:38.997Z,54.80
2022-11-24T21:25:11.378Z,55.80
2022-11-24T21:27:42.806Z,58.30
2022-11-24T21:30:15.422Z,55.60
2022-11-24T21:32:46.661Z,60.60
2022-11-24T21:35:17.884Z,58.80
2022-11-24T21:37:48.800Z,65.00
2022-11-24T21:40:20.108Z,58.40
2022-11-24T21:42:51.147Z,60.90
2022-11-24T21:45:22.057Z,63.60
2022-11-24T21:47:53.104Z,55.80
2022-11-24T21:50:24.344Z,66.40
2022-11-24T21:52:58.118Z,69.30
2022-11-24T21:55:33.231Z,68.00
2022-11-24T21:58:07.038Z,59.00
2022-11-24T22:00:38.085Z,63.30
2022-11-24T22:03:09.130Z,65.30
2022-11-24T22:05:39.990Z,72.60
2022-11-24T22:08:11.150Z,70.10
2022-11-24T22:10:41.935Z,69.10
2022-11-24T22:13:12.791Z,75.00
2022-11-24T22:15:43.723Z,74.10
2022-11-24T22:18:14.806Z,75.70
2022-11-24T22:20:57.496Z,72.70
2022-11-24T22:23:28.679Z,64.70
2022-11-24T22:26:02.894Z,74.90
2022-11-24T22:28:35.611Z,72.30
2022-11-24T22:31:11.436Z,73.80
2022-11-24T22:33:44.084Z,77.00
2022-11-24T22:36:16.670Z,83.70
2022-11-24T22:38:48.147Z,86.30
2022-11-24T22:41:20.042Z,76.00
2022-11-24T22:43:51.496Z,83.90
2022-11-24T22:46:27.138Z,80.80
2022-11-24T22:48:59.508Z,81.00
2022-11-24T22:51:32.599Z,83.60
2022-11-24T22:54:05.080Z,85.90
2022-11-24T22:56:36.862Z,93.90
2022-11-24T22:59:07.871Z,80.00
2022-11-24T23:01:39.314Z,72.80
2022-11-24T23:04:10.694Z,82.10
2022-11-24T23:06:42.193Z,73.30
2022-11-24T23:09:16.747Z,80.50
2022-11-24T23:11:48.536Z,90.90
2022-11-24T23:14:20.066Z,86.60
2022-11-24T23:16:52.392Z,97.50
2022-11-24T23:19:23.739Z,90.60
2022-11-24T23:21:54.924Z,85.30
2022-11-24T23:24:28.118Z,87.10
2022-11-24T23:26:59.674Z,79.90
2022-11-24T23:29:30.808Z,82.30
2022-11-24T23:32:01.976Z,85.20
2022-11-24T23:34:33.173Z,74.30
2022-11-24T23:37:04.554Z,83.90
2022-11-24T23:39:35.544Z,83.30
2022-11-24T23:42:06.736Z,97.00
2022-11-24T23:44:37.869Z,82.70
2022-11-24T23:47:08.955Z,77.30
2022-11-24T23:49:39.725Z,80.90
2022-11-24T23:52:10.697Z,78.10
2022-11-24T23:54:41.525Z,74.20
2022-11-24T23:57:12.309Z,100.20
2022-11-24T23:59:43.157Z,85.10
